createdAt,value
2022-10-08T00:00:12.439Z,88.90
2022-10-08T00:02:39.582Z,89.00
2022-10-08T00:05:10.282Z,89.00
2022-10-08T00:07:38.359Z,89.10
2022-10-08T00:10:11.631Z,89.10
2022-10-08T00:12:39.574Z,89.00
2022-10-08T00:15:07.545Z,89.20
2022-10-08T00:17:37.566Z,89.30
2022-10-08T00:20:09.920Z,89.20
2022-10-08T00:22:39.735Z,89.30
2022-10-08T00:25:08.485Z,89.20
2022-10-08T00:27:36.474Z,89.40
2022-10-08T00:30:07.645Z,89.30
2022-10-08T00:32:35.076Z,89.40
2022-10-08T00:35:06.513Z,89.30
2022-10-08T00:37:33.754Z,89.40
2022-10-08T00:40:00.840Z,89.40
2022-10-08T00:42:29.001Z,89.30
2022-10-08T00:45:01.390Z,89.50
2022-10-08T00:47:42.209Z,89.50
2022-10-08T00:50:19.667Z,89.40
2022-10-08T00:52:59.751Z,89.40
2022-10-08T00:55:31.113Z,89.50
2022-10-08T00:58:26.361Z,89.40
2022-10-08T01:00:53.956Z,89.30
2022-10-08T01:03:21.519Z,89.30
2022-10-08T01:06:07.334Z,89.30
2022-10-08T01:09:19.435Z,89.20
2022-10-08T01:12:17.935Z,89.20
2022-10-08T01:15:00.690Z,89.20
2022-10-08T01:17:38.807Z,89.30
2022-10-08T01:20:20.138Z,89.20
2022-10-08T01:23:11.521Z,89.20
2022-10-08T01:25:56.630Z,89.30
2022-10-08T01:28:46.090Z,89.30
2022-10-08T01:31:37.285Z,89.40
2022-10-08T01:34:13.883Z,89.50
2022-10-08T01:36:53.252Z,89.60
2022-10-08T01:39:29.857Z,89.70
2022-10-08T01:41:59.764Z,89.90
2022-10-08T01:44:37.151Z,89.80
2022-10-08T01:47:10.184Z,89.90
2022-10-08T01:49:46.074Z,89.90
2022-10-08T01:52:21.277Z,89.80
2022-10-08T01:54:52.414Z,89.90
2022-10-08T01:57:19.775Z,89.80
2022-10-08T01:59:56.571Z,90.00
2022-10-08T02:02:26.151Z,89.90
2022-10-08T02:04:57.311Z,89.90
2022-10-08T02:07:29.292Z,90.00
2022-10-08T02:10:12.715Z,90.00
2022-10-08T02:12:41.241Z,90.00
2022-10-08T02:15:21.292Z,89.90
2022-10-08T02:18:10.712Z,90.00
2022-10-08T02:20:53.093Z,90.00
2022-10-08T02:23:31.211Z,90.10
2022-10-08T02:26:04.334Z,90.20
2022-10-08T02:28:34.692Z,90.30
2022-10-08T02:31:33.512Z,90.40
2022-10-08T02:34:06.324Z,90.30
2022-10-08T02:36:40.051Z,90.40
2022-10-08T02:39:10.285Z,90.50
2022-10-08T02:41:43.471Z,90.40
2022-10-08T02:44:20.100Z,90.50
2022-10-08T02:46:52.997Z,90.50
2022-10-08T02:49:24.380Z,90.50
2022-10-08T02:51:54.336Z,90.40
2022-10-08T02:54:23.946Z,90.50
2022-10-08T02:57:09.415Z,90.50
2022-10-08T02:59:40.466Z,90.50
2022-10-08T03:02:12.656Z,90.50
2022-10-08T03:04:54.289Z,90.50
2022-10-08T03:07:28.950Z,90.50
2022-10-08T03:10:03.516Z,90.60
2022-10-08T03:12:31.782Z,90.50
2022-10-08T03:15:01.595Z,90.60
2022-10-08T03:17:48.494Z,90.70
2022-10-08T03:20:23.841Z,90.60
2022-10-08T03:22:51.006Z,90.80
2022-10-08T03:25:18.778Z,90.60
2022-10-08T03:27:51.727Z,90.60
2022-10-08T03:30:19.142Z,90.70
2022-10-08T03:32:46.836Z,90.80
2022-10-08T03:35:14.240Z,90.70
2022-10-08T03:37:41.865Z,90.70
2022-10-08T03:40:10.001Z,90.80
2022-10-08T03:42:39.212Z,91.00
2022-10-08T03:45:07.062Z,90.90
2022-10-08T03:47:46.155Z,91.00
2022-10-08T03:50:16.255Z,91.10
2022-10-08T03:52:51.855Z,91.00
2022-10-08T03:55:19.295Z,91.20
2022-10-08T03:57:49.429Z,91.30
2022-10-08T04:00:20.022Z,91.10
2022-10-08T04:02:56.132Z,91.10
2022-10-08T04:05:29.056Z,91.30
2022-10-08T04:07:56.215Z,91.40
2022-10-08T04:10:23.647Z,91.30
2022-10-08T04:12:51.168Z,91.30
2022-10-08T04:15:18.484Z,91.40
2022-10-08T04:17:46.047Z,91.30
2022-10-08T04:20:15.972Z,91.50
2022-10-08T04:22:46.270Z,91.60
2022-10-08T04:25:25.587Z,91.60
2022-10-08T04:27:55.122Z,91.70
2022-10-08T04:30:24.150Z,91.80
2022-10-08T04:32:51.375Z,91.70
2022-10-08T04:35:21.216Z,91.80
2022-10-08T04:37:51.768Z,91.80
2022-10-08T04:40:19.409Z,91.80
2022-10-08T04:42:52.296Z,91.80
2022-10-08T04:45:19.829Z,92.00
2022-10-08T04:47:47.129Z,92.00
2022-10-08T04:50:20.399Z,92.00
2022-10-08T04:53:01.781Z,92.00
2022-10-08T04:55:33.507Z,92.10
2022-10-08T04:58:01.291Z,92.10
2022-10-08T05:00:29.334Z,92.10
2022-10-08T05:03:02.377Z,92.00
2022-10-08T05:05:52.511Z,91.90
2022-10-08T05:08:22.884Z,91.80
2022-10-08T05:10:50.435Z,91.70
2022-10-08T05:13:18.170Z,91.50
2022-10-08T05:15:48.781Z,91.40
2022-10-08T05:18:16.383Z,91.30
2022-10-08T05:20:43.506Z,91.10
2022-10-08T05:23:12.927Z,91.10
2022-10-08T05:25:47.981Z,90.90
2022-10-08T05:28:15.453Z,90.70
2022-10-08T05:30:55.370Z,90.60
2022-10-08T05:33:25.328Z,90.10
2022-10-08T05:35:54.017Z,89.90
2022-10-08T05:38:25.449Z,89.80
2022-10-08T05:41:25.420Z,89.40
2022-10-08T05:44:06.562Z,89.10
2022-10-08T05:46:42.459Z,88.70
2022-10-08T05:49:40.045Z,88.40
2022-10-08T05:52:13.306Z,87.90
2022-10-08T05:54:47.086Z,87.40
2022-10-08T05:57:22.128Z,86.40
2022-10-08T05:59:59.507Z,85.80
2022-10-08T06:02:36.161Z,85.30
2022-10-08T06:05:12.735Z,81.80
2022-10-08T06:07:46.245Z,76.60
2022-10-08T06:10:33.909Z,73.70
2022-10-08T06:13:01.975Z,70.20
2022-10-08T06:15:50.193Z,66.20
2022-10-08T06:18:44.750Z,63.10
2022-10-08T06:21:45.732Z,60.00
2022-10-08T06:24:12.786Z,57.30
2022-10-08T06:26:47.301Z,55.30
2022-10-08T06:29:24.093Z,53.80
2022-10-08T06:32:15.159Z,52.50
2022-10-08T06:34:49.561Z,51.00
2022-10-08T06:37:17.038Z,50.20
2022-10-08T06:40:00.432Z,50.40
2022-10-08T06:45:34.900Z,52.20
2022-10-08T06:48:08.774Z,52.10
2022-10-08T06:50:43.727Z,51.30
2022-10-08T06:53:23.220Z,51.30
2022-10-08T06:56:15.329Z,50.80
2022-10-08T06:58:45.384Z,50.60
2022-10-08T07:01:27.873Z,50.40
2022-10-08T07:04:15.406Z,49.80
2022-10-08T07:07:03.800Z,47.90
2022-10-08T07:09:42.747Z,48.60
2022-10-08T07:12:10.552Z,48.80
2022-10-08T07:14:41.295Z,47.50
2022-10-08T07:17:08.872Z,45.40
2022-10-08T07:19:41.981Z,45.50
2022-10-08T07:22:10.003Z,45.70
2022-10-08T07:24:53.075Z,45.70
2022-10-08T07:27:25.897Z,45.10
2022-10-08T07:29:59.040Z,44.50
2022-10-08T07:35:13.450Z,45.40
2022-10-08T07:37:47.782Z,45.50
2022-10-08T07:40:19.990Z,44.50
2022-10-08T07:43:04.585Z,43.80
2022-10-08T07:45:50.502Z,44.10
2022-10-08T07:48:33.878Z,43.40
2022-10-08T07:51:13.552Z,43.30
2022-10-08T07:53:56.713Z,44.20
2022-10-08T07:57:10.937Z,45.30
2022-10-08T07:59:44.625Z,46.60
2022-10-08T08:02:19.443Z,48.00
2022-10-08T08:04:51.233Z,48.50
2022-10-08T08:07:32.193Z,47.90
2022-10-08T08:10:00.981Z,47.50
2022-10-08T08:12:31.748Z,47.30
2022-10-08T08:14:59.512Z,45.40
2022-10-08T08:17:31.580Z,44.40
2022-10-08T08:20:08.601Z,43.20
2022-10-08T08:22:37.830Z,42.80
2022-10-08T08:25:13.462Z,41.20
2022-10-08T08:27:45.931Z,41.30
2022-10-08T08:30:18.298Z,41.60
2022-10-08T08:32:48.094Z,41.20
2022-10-08T08:35:36.762Z,40.70
2022-10-08T08:38:11.082Z,40.90
2022-10-08T08:41:42.259Z,40.30
2022-10-08T08:44:33.822Z,38.90
2022-10-08T08:47:25.261Z,38.70
2022-10-08T08:50:33.764Z,38.60
2022-10-08T08:53:08.814Z,38.90
2022-10-08T08:56:04.870Z,38.70
2022-10-08T08:58:42.236Z,38.10
2022-10-08T09:01:22.197Z,38.30
2022-10-08T09:04:06.383Z,38.30
2022-10-08T09:06:41.299Z,38.30
2022-10-08T09:12:52.119Z,38.60
2022-10-08T09:15:34.988Z,38.40
2022-10-08T09:18:07.987Z,38.70
2022-10-08T09:21:56.034Z,38.30
2022-10-08T09:23:49.694Z,38.50
2022-10-08T09:26:30.287Z,38.70
2022-10-08T09:29:04.120Z,39.10
2022-10-08T09:31:41.268Z,40.20
2022-10-08T09:34:13.379Z,40.60
2022-10-08T09:37:06.642Z,40.70
2022-10-08T09:40:02.260Z,41.00
2022-10-08T09:42:35.331Z,41.20
2022-10-08T09:45:06.752Z,41.00
2022-10-08T09:47:40.445Z,40.60
2022-10-08T09:50:22.450Z,41.10
2022-10-08T09:53:03.196Z,41.50
2022-10-08T09:55:37.613Z,42.60
2022-10-08T09:58:19.177Z,43.90
2022-10-08T10:01:13.843Z,44.60
2022-10-08T10:03:48.854Z,45.20
2022-10-08T10:06:39.191Z,45.30
2022-10-08T10:09:31.311Z,45.50
2022-10-08T10:12:04.514Z,45.30
2022-10-08T10:14:44.331Z,45.00
2022-10-08T10:17:43.216Z,45.00
2022-10-08T10:20:15.684Z,45.80
2022-10-08T10:23:18.912Z,46.30
2022-10-08T10:25:57.790Z,47.10
2022-10-08T10:29:05.656Z,47.80
2022-10-08T10:31:59.076Z,47.80
2022-10-08T10:34:32.555Z,48.10
2022-10-08T10:37:14.054Z,48.30
2022-10-08T10:40:09.199Z,48.70
2022-10-08T10:42:47.097Z,49.40
2022-10-08T10:45:18.141Z,49.40
2022-10-08T10:47:53.641Z,49.60
2022-10-08T10:50:53.207Z,49.90
2022-10-08T10:54:10.120Z,50.00
2022-10-08T10:56:46.859Z,50.20
2022-10-08T10:59:23.809Z,50.50
2022-10-08T11:02:09.902Z,51.40
2022-10-08T11:05:03.233Z,52.00
2022-10-08T11:08:04.275Z,51.80
2022-10-08T11:10:58.115Z,52.20
2022-10-08T11:13:47.083Z,52.60
2022-10-08T11:16:57.302Z,51.90
2022-10-08T11:20:10.003Z,52.30
2022-10-08T11:22:46.385Z,52.50
2022-10-08T11:26:14.014Z,53.10
2022-10-08T11:29:09.886Z,53.30
2022-10-08T11:31:51.243Z,53.10
2022-10-08T11:34:33.581Z,53.30
2022-10-08T11:37:10.007Z,53.10
2022-10-08T11:40:20.571Z,53.20
2022-10-08T11:43:11.922Z,53.10
2022-10-08T11:45:46.215Z,53.70
2022-10-08T11:48:53.760Z,53.90
2022-10-08T11:51:22.572Z,54.00
2022-10-08T11:54:18.108Z,53.70
2022-10-08T11:56:51.967Z,53.80
2022-10-08T11:59:42.053Z,53.90
2022-10-08T12:02:25.263Z,53.30
2022-10-08T12:05:01.993Z,52.70
2022-10-08T12:07:39.352Z,52.80
2022-10-08T12:10:06.737Z,52.90
2022-10-08T12:13:05.522Z,53.20
2022-10-08T12:15:43.660Z,53.00
2022-10-08T12:18:14.090Z,53.10
2022-10-08T12:20:45.814Z,53.30
2022-10-08T12:23:36.509Z,53.20
2022-10-08T12:26:05.531Z,53.30
2022-10-08T12:28:38.805Z,53.80
2022-10-08T12:31:40.617Z,53.70
2022-10-08T12:34:21.669Z,53.40
2022-10-08T12:37:08.119Z,53.80
2022-10-08T12:39:43.602Z,53.80
2022-10-08T12:42:29.866Z,53.80
2022-10-08T12:48:51.930Z,53.50
2022-10-08T12:51:36.808Z,53.10
2022-10-08T12:54:24.039Z,52.90
2022-10-08T12:56:54.906Z,53.20
2022-10-08T12:59:25.306Z,53.20
2022-10-08T13:01:54.440Z,53.50
2022-10-08T13:04:30.073Z,53.30
2022-10-08T13:07:00.467Z,52.90
2022-10-08T13:09:36.170Z,52.40
2022-10-08T13:12:17.001Z,52.10
2022-10-08T13:14:44.270Z,52.50
2022-10-08T13:17:57.453Z,52.50
2022-10-08T13:20:30.066Z,52.90
2022-10-08T13:22:57.183Z,53.40
2022-10-08T13:25:43.596Z,53.60
2022-10-08T13:28:48.353Z,53.70
2022-10-08T13:31:32.672Z,53.90
2022-10-08T13:34:04.343Z,54.00
2022-10-08T13:36:38.098Z,53.80
2022-10-08T13:39:06.523Z,53.50
2022-10-08T13:41:37.317Z,53.20
2022-10-08T13:44:06.792Z,53.40
2022-10-08T13:46:34.488Z,53.60
2022-10-08T13:49:03.359Z,54.00
2022-10-08T13:51:31.579Z,54.30
2022-10-08T13:54:01.261Z,54.20
2022-10-08T13:56:29.065Z,54.40
2022-10-08T13:58:59.796Z,54.40
2022-10-08T14:01:30.446Z,54.40
2022-10-08T14:04:00.709Z,54.50
2022-10-08T14:06:28.245Z,54.80
2022-10-08T14:08:58.822Z,55.00
2022-10-08T14:11:36.037Z,55.10
2022-10-08T14:14:03.877Z,55.20
2022-10-08T14:16:31.940Z,55.20
2022-10-08T14:18:59.465Z,55.50
2022-10-08T14:21:26.868Z,55.60
2022-10-08T14:23:55.023Z,55.80
2022-10-08T14:26:22.345Z,55.80
2022-10-08T14:28:49.757Z,56.20
2022-10-08T14:31:17.464Z,56.20
2022-10-08T14:33:46.155Z,56.40
2022-10-08T14:36:30.476Z,56.50
2022-10-08T14:39:01.065Z,57.00
2022-10-08T14:41:32.977Z,56.90
2022-10-08T14:44:00.542Z,57.50
2022-10-08T14:46:30.932Z,57.40
2022-10-08T14:48:58.547Z,57.70
2022-10-08T14:51:40.806Z,58.20
2022-10-08T14:54:13.460Z,58.90
2022-10-08T14:56:44.095Z,59.30
2022-10-08T14:59:12.106Z,60.30
2022-10-08T15:01:44.617Z,60.80
2022-10-08T15:04:15.081Z,61.00
2022-10-08T15:06:42.819Z,61.70
2022-10-08T15:09:11.973Z,61.90
2022-10-08T15:11:39.925Z,62.50
2022-10-08T15:14:07.955Z,62.60
2022-10-08T15:16:39.804Z,63.10
2022-10-08T15:19:08.380Z,63.30
2022-10-08T15:21:36.466Z,63.70
2022-10-08T15:24:05.230Z,64.20
2022-10-08T15:26:42.164Z,64.70
2022-10-08T15:29:11.342Z,64.70
2022-10-08T15:31:39.197Z,65.30
2022-10-08T15:34:11.207Z,65.70
2022-10-08T15:36:41.333Z,65.90
2022-10-08T15:39:18.125Z,66.20
2022-10-08T15:41:51.547Z,66.40
2022-10-08T15:44:20.645Z,66.90
2022-10-08T15:46:50.021Z,67.20
2022-10-08T15:49:17.214Z,67.50
2022-10-08T15:51:44.400Z,67.70
2022-10-08T15:54:11.960Z,67.70
2022-10-08T15:56:40.428Z,68.20
2022-10-08T15:59:10.870Z,68.20
2022-10-08T16:01:45.234Z,68.40
2022-10-08T16:04:15.856Z,68.70
2022-10-08T16:06:47.115Z,68.70
2022-10-08T16:09:16.276Z,68.80
2022-10-08T16:11:48.434Z,68.70
2022-10-08T16:14:22.741Z,68.90
2022-10-08T16:16:51.265Z,69.00
2022-10-08T16:19:23.262Z,68.90
2022-10-08T16:21:54.222Z,69.60
2022-10-08T16:24:22.345Z,69.80
2022-10-08T16:26:50.205Z,70.10
2022-10-08T16:29:18.841Z,70.10
2022-10-08T16:31:47.693Z,70.40
2022-10-08T16:34:21.369Z,70.60
2022-10-08T16:36:49.461Z,70.60
2022-10-08T16:39:18.772Z,71.00
2022-10-08T16:41:49.555Z,71.40
2022-10-08T16:44:20.923Z,71.90
2022-10-08T16:46:52.699Z,72.10
2022-10-08T16:49:24.513Z,72.40
2022-10-08T16:52:03.660Z,72.70
2022-10-08T16:54:31.595Z,72.70
2022-10-08T16:56:59.324Z,73.00
2022-10-08T16:59:28.720Z,73.10
2022-10-08T17:01:58.295Z,73.20
2022-10-08T17:04:27.974Z,73.30
2022-10-08T17:06:58.630Z,73.60
2022-10-08T17:09:25.842Z,73.50
2022-10-08T17:11:56.438Z,73.50
2022-10-08T17:14:23.921Z,73.70
2022-10-08T17:16:51.169Z,73.70
2022-10-08T17:19:19.083Z,74.00
2022-10-08T17:21:46.726Z,73.90
2022-10-08T17:24:14.857Z,74.20
2022-10-08T17:26:43.774Z,74.30
2022-10-08T17:29:12.895Z,74.30
2022-10-08T17:31:41.496Z,74.50
2022-10-08T17:34:09.674Z,74.60
2022-10-08T17:36:40.035Z,74.60
2022-10-08T17:39:10.962Z,74.80
2022-10-08T17:41:42.153Z,74.90
2022-10-08T17:44:10.430Z,74.90
2022-10-08T17:46:49.096Z,75.20
2022-10-08T17:49:20.375Z,75.10
2022-10-08T17:51:51.403Z,75.20
2022-10-08T17:54:26.047Z,75.40
2022-10-08T17:56:54.979Z,75.90
2022-10-08T17:59:25.580Z,75.60
2022-10-08T18:01:55.607Z,75.80
2022-10-08T18:04:23.018Z,75.90
2022-10-08T18:06:52.797Z,76.10
2022-10-08T18:09:21.832Z,76.50
2022-10-08T18:11:52.277Z,76.80
2022-10-08T18:14:21.808Z,76.90
2022-10-08T18:16:58.667Z,77.10
2022-10-08T18:19:27.052Z,77.20
2022-10-08T18:21:54.431Z,77.10
2022-10-08T18:24:29.732Z,77.30
2022-10-08T18:27:01.279Z,77.60
2022-10-08T18:29:28.637Z,77.80
2022-10-08T18:31:55.609Z,77.80
2022-10-08T18:34:23.277Z,77.90
2022-10-08T18:36:53.731Z,77.80
2022-10-08T18:39:23.706Z,77.80
2022-10-08T18:42:04.642Z,78.10
2022-10-08T18:47:16.037Z,78.00
2022-10-08T18:49:43.753Z,78.20
2022-10-08T18:52:11.041Z,78.20
2022-10-08T18:54:41.872Z,78.40
2022-10-08T18:57:09.077Z,78.30
2022-10-08T18:59:36.867Z,78.40
2022-10-08T19:02:11.728Z,78.60
2022-10-08T19:04:39.179Z,78.50
2022-10-08T19:07:07.969Z,78.70
2022-10-08T19:09:35.104Z,78.90
2022-10-08T19:12:08.371Z,78.90
2022-10-08T19:14:35.890Z,78.80
2022-10-08T19:17:03.118Z,78.70
2022-10-08T19:19:34.359Z,78.40
2022-10-08T19:22:01.925Z,78.40
2022-10-08T19:24:29.390Z,78.30
2022-10-08T19:27:03.001Z,78.20
2022-10-08T19:29:33.856Z,78.00
2022-10-08T19:32:04.077Z,77.90
2022-10-08T19:34:33.833Z,77.90
2022-10-08T19:37:04.224Z,77.80
2022-10-08T19:39:31.642Z,77.70
2022-10-08T19:42:02.519Z,77.70
2022-10-08T19:44:29.672Z,77.50
2022-10-08T19:46:57.448Z,77.50
2022-10-08T19:49:24.733Z,77.40
2022-10-08T19:51:55.071Z,77.20
2022-10-08T19:54:22.463Z,77.20
2022-10-08T19:56:52.690Z,77.20
2022-10-08T19:59:20.214Z,77.20
2022-10-08T20:01:47.527Z,77.20
2022-10-08T20:04:20.769Z,77.20
2022-10-08T20:06:48.228Z,77.20
2022-10-08T20:09:17.391Z,77.30
2022-10-08T20:11:46.618Z,77.40
2022-10-08T20:14:23.031Z,77.60
2022-10-08T20:16:50.815Z,77.80
2022-10-08T20:19:20.947Z,78.00
2022-10-08T20:21:56.340Z,78.10
2022-10-08T20:24:23.793Z,78.40
2022-10-08T20:26:51.142Z,78.80
2022-10-08T20:29:27.432Z,78.90
2022-10-08T20:32:03.552Z,79.10
2022-10-08T20:34:31.830Z,79.40
2022-10-08T20:37:12.888Z,79.40
2022-10-08T20:39:46.799Z,79.60
2022-10-08T20:42:16.781Z,79.70
2022-10-08T20:44:47.659Z,80.00
2022-10-08T20:47:15.750Z,80.10
2022-10-08T20:49:43.090Z,80.20
2022-10-08T20:52:13.776Z,80.20
2022-10-08T20:54:41.293Z,80.40
2022-10-08T20:57:09.022Z,80.50
2022-10-08T20:59:36.799Z,80.50
2022-10-08T21:02:06.472Z,80.60
2022-10-08T21:04:36.144Z,80.80
2022-10-08T21:07:06.011Z,80.90
2022-10-08T21:12:20.540Z,81.20
2022-10-08T21:14:47.983Z,81.40
2022-10-08T21:17:17.926Z,81.20
2022-10-08T21:19:47.915Z,81.40
2022-10-08T21:22:16.128Z,81.90
2022-10-08T21:24:44.195Z,81.80
2022-10-08T21:27:11.353Z,82.20
2022-10-08T21:29:38.643Z,82.00
2022-10-08T21:32:06.426Z,82.10
2022-10-08T21:34:34.057Z,82.20
2022-10-08T21:37:01.322Z,82.40
2022-10-08T21:39:29.036Z,82.70
2022-10-08T21:41:59.642Z,82.70
2022-10-08T21:44:27.104Z,82.80
2022-10-08T21:46:57.135Z,83.10
2022-10-08T21:49:30.743Z,83.10
2022-10-08T21:51:58.426Z,83.20
2022-10-08T21:54:25.609Z,83.10
2022-10-08T21:56:58.946Z,83.10
2022-10-08T21:59:26.918Z,83.30
2022-10-08T22:01:54.538Z,83.50
2022-10-08T22:04:31.278Z,83.60
2022-10-08T22:07:04.758Z,83.50
2022-10-08T22:09:34.816Z,83.60
2022-10-08T22:12:04.782Z,83.90
2022-10-08T22:14:34.638Z,84.10
2022-10-08T22:17:02.207Z,84.50
2022-10-08T22:19:29.830Z,84.60
2022-10-08T22:21:57.453Z,84.50
2022-10-08T22:24:25.229Z,84.90
2022-10-08T22:26:53.231Z,85.00
2022-10-08T22:29:20.830Z,85.10
2022-10-08T22:31:48.343Z,85.10
2022-10-08T22:34:16.723Z,84.70
2022-10-08T22:36:46.018Z,84.80
2022-10-08T22:39:14.836Z,84.70
2022-10-08T22:41:42.526Z,84.70
2022-10-08T22:44:10.672Z,85.00
2022-10-08T22:46:39.714Z,85.10
2022-10-08T22:49:09.289Z,85.90
2022-10-08T22:51:37.053Z,86.10
2022-10-08T22:54:07.350Z,86.40
2022-10-08T22:56:37.878Z,86.90
2022-10-08T22:59:05.338Z,86.70
2022-10-08T23:01:32.621Z,87.30
2022-10-08T23:04:00.492Z,87.20
2022-10-08T23:06:33.698Z,87.10
2022-10-08T23:09:10.690Z,88.00
2022-10-08T23:11:40.809Z,88.30
2022-10-08T23:14:08.251Z,88.40
2022-10-08T23:16:36.002Z,88.00
2022-10-08T23:19:07.542Z,88.00
2022-10-08T23:21:35.696Z,88.00
2022-10-08T23:24:03.738Z,88.20
2022-10-08T23:26:31.669Z,88.20
2022-10-08T23:29:02.545Z,88.40
2022-10-08T23:31:34.668Z,88.70
2022-10-08T23:34:03.865Z,88.80
2022-10-08T23:36:33.967Z,88.60
2022-10-08T23:39:03.878Z,88.70
2022-10-08T23:41:32.434Z,89.10
2022-10-08T23:43:59.805Z,89.50
2022-10-08T23:46:30.001Z,89.30
2022-10-08T23:48:59.599Z,89.40
2022-10-08T23:51:33.803Z,89.50
2022-10-08T23:54:04.032Z,89.80
2022-10-08T23:56:37.591Z,90.00
2022-10-08T23:59:05.050Z,90.20
